Time;durP1;ratioP1;P1;durP2;ratioP2;P2;SDS_P1;SDS_P2;PMS_P1;PMS_P2;Temp;Humidity;BMP_temperature;BMP_pressure;BME280_temperature;BME280_humidity;BME280_pressure;Samples;Min_cycle;Max_cycle;Signal;HPM_P1;HPM_P2
2022/01/02 00:00:22;;;;;;;10.60;6.40;;;6.70;1.00;;;;;;5012477;28;20821;-77
2022/01/02 00:02:57;;;;;;;7.97;5.33;;;6.60;1.00;;;;;;4990600;28;20960;-77
2022/01/02 00:05:23;;;;;;;11.60;6.50;;;6.60;1.00;;;;;;5013219;28;20807;-76
2022/01/02 00:08:20;;;;;;;11.23;6.57;;;6.50;1.00;;;;;;5008486;28;20743;-77
2022/01/02 00:10:47;;;;;;;10.60;6.27;;;6.40;1.00;;;;;;4948487;29;20438;-80
2022/01/02 00:13:20;;;;;;;10.80;6.10;;;6.30;1.00;;;;;;4951832;29;20437;-80
2022/01/02 00:15:47;;;;;;;21.20;7.50;;;6.30;1.00;;;;;;4968239;28;20433;-80
2022/01/02 00:18:15;;;;;;;15.53;6.57;;;6.30;1.00;;;;;;4961868;28;20446;-80
2022/01/02 00:20:48;;;;;;;9.33;5.63;;;6.40;1.00;;;;;;4936133;29;20423;-80
2022/01/02 00:23:20;;;;;;;10.37;5.33;;;6.40;1.00;;;;;;4952291;29;20961;-80
2022/01/02 00:25:52;;;;;;;11.90;5.73;;;6.40;1.00;;;;;;4958519;28;21034;-77
2022/01/02 00:28:18;;;;;;;14.77;6.87;;;6.40;1.00;;;;;;4971590;28;20418;-77
2022/01/02 00:30:47;;;;;;;22.23;5.70;;;6.40;1.00;;;;;;4962254;28;20899;-77
2022/01/02 00:33:12;;;;;;;10.00;5.20;;;6.30;1.00;;;;;;4961635;28;20430;-77
2022/01/02 00:35:39;;;;;;;7.43;5.00;;;6.40;1.00;;;;;;4956797;28;20423;-77
2022/01/02 00:38:05;;;;;;;12.93;6.10;;;6.30;1.00;;;;;;4952050;29;20434;-77
2022/01/02 00:40:38;;;;;;;10.27;6.10;;;6.30;1.00;;;;;;4959183;28;21060;-80
2022/01/02 00:43:04;;;;;;;13.23;6.00;;;6.30;1.00;;;;;;4963545;28;20430;-80
2022/01/02 00:45:44;;;;;;;11.97;5.70;;;6.20;1.00;;;;;;4947134;28;20565;-80
2022/01/02 00:48:24;;;;;;;8.80;4.90;;;7.90;1.00;;;;;;4992172;28;20430;-80
2022/01/02 00:50:52;;;;;;;10.03;5.60;;;6.10;1.00;;;;;;5004769;28;20428;-80
2022/01/02 00:53:20;;;;;;;6.33;4.80;;;6.10;1.00;;;;;;5008199;28;20443;-80
2022/01/02 00:55:57;;;;;;;12.00;6.60;;;6.10;1.00;;;;;;5012600;28;20420;-81
2022/01/02 00:58:33;;;;;;;9.57;4.90;;;6.00;1.00;;;;;;5002557;28;20430;-80
2022/01/02 01:01:01;;;;;;;10.53;5.50;;;5.90;1.00;;;;;;5007682;28;20423;-80
2022/01/02 01:03:30;;;;;;;11.90;6.17;;;5.90;1.00;;;;;;5009977;28;20483;-80
2022/01/02 01:05:59;;;;;;;14.00;6.10;;;5.80;1.00;;;;;;5008828;28;20451;-80
2022/01/02 01:08:25;;;;;;;14.20;5.00;;;5.80;1.00;;;;;;5012542;28;20973;-80
2022/01/02 01:10:51;;;;;;;16.40;5.37;;;5.70;1.00;;;;;;5012692;28;20964;-77
2022/01/02 01:13:17;;;;;;;11.67;4.93;;;5.70;1.00;;;;;;5013612;28;20853;-76
2022/01/02 01:15:43;;;;;;;10.67;5.87;;;5.70;1.00;;;;;;4986493;28;20932;-77
2022/01/02 01:18:09;;;;;;;11.50;6.20;;;5.60;1.00;;;;;;4997674;28;20431;-77
2022/01/02 01:20:41;;;;;;;11.37;6.23;;;5.60;1.00;;;;;;5010051;28;20416;-77
2022/01/02 01:23:07;;;;;;;21.10;6.43;;;5.60;1.00;;;;;;5004890;28;20170;-77
2022/01/02 01:25:33;;;;;;;8.50;5.63;;;5.50;1.00;;;;;;5011399;28;20451;-77
2022/01/02 01:28:00;;;;;;;9.60;6.17;;;5.60;1.00;;;;;;5015024;28;20416;-77
2022/01/02 01:30:27;;;;;;;13.13;7.03;;;5.60;1.00;;;;;;4998180;28;20636;-77
2022/01/02 01:32:54;;;;;;;14.50;6.77;;;5.70;1.00;;;;;;5013860;28;20473;-76
2022/01/02 01:35:21;;;;;;;15.60;6.73;;;5.60;1.00;;;;;;5011101;28;20455;-77
2022/01/02 01:37:46;;;;;;;13.83;6.30;;;5.60;1.00;;;;;;5014536;28;20934;-77
2022/01/02 01:40:14;;;;;;;14.43;7.70;;;7.70;1.00;;;;;;5015773;28;20547;-80
2022/01/02 01:42:43;;;;;;;11.40;6.60;;;5.60;1.00;;;;;;5015609;28;20184;-80
2022/01/02 01:47:48;;;;;;;10.33;5.60;;;5.60;1.00;;;;;;5015066;28;20427;-80
2022/01/02 01:50:14;;;;;;;11.67;6.37;;;5.60;1.00;;;;;;4997752;28;20420;-80
2022/01/02 01:52:40;;;;;;;14.43;6.00;;;5.60;1.00;;;;;;5007049;28;20910;-80
2022/01/02 01:55:06;;;;;;;12.03;5.87;;;5.50;1.00;;;;;;5000196;28;20785;-78
2022/01/02 01:57:32;;;;;;;12.40;5.90;;;5.50;1.00;;;;;;5007135;28;20412;-80
2022/01/02 01:59:59;;;;;;;28.33;6.47;;;5.50;1.00;;;;;;5011642;28;20424;-80
2022/01/02 02:02:25;;;;;;;10.47;5.33;;;5.50;1.00;;;;;;5015209;28;20404;-80
2022/01/02 02:04:51;;;;;;;8.00;4.90;;;5.50;1.00;;;;;;5012534;28;20455;-80
2022/01/02 02:07:17;;;;;;;8.23;5.93;;;5.50;1.00;;;;;;5015036;28;20422;-80
2022/01/02 02:09:59;;;;;;;10.27;5.60;;;5.50;1.00;;;;;;5014527;28;20259;-80
2022/01/02 02:12:26;;;;;;;16.23;6.73;;;5.50;1.00;;;;;;5014468;28;20454;-77
2022/01/02 02:14:53;;;;;;;16.97;6.70;;;5.60;1.00;;;;;;5007265;28;20420;-77
2022/01/02 02:17:19;;;;;;;17.87;5.50;;;5.70;1.00;;;;;;5011400;28;20930;-77
2022/01/02 02:19:46;;;;;;;11.90;6.50;;;5.70;1.00;;;;;;5006066;28;20489;-77
2022/01/02 02:22:12;;;;;;;36.07;8.03;;;5.80;1.00;;;;;;5013620;28;20193;-77
2022/01/02 02:24:40;;;;;;;18.90;7.00;;;5.80;1.00;;;;;;5005940;28;20455;-77
2022/01/02 02:27:05;;;;;;;12.23;6.00;;;5.90;1.00;;;;;;5011398;28;20447;-76
2022/01/02 02:29:31;;;;;;;34.37;7.23;;;6.00;1.00;;;;;;5007860;28;20451;-77
2022/01/02 02:31:57;;;;;;;15.17;8.40;;;6.10;1.00;;;;;;5013913;28;20177;-77
2022/01/02 02:34:22;;;;;;;9.63;6.03;;;6.10;1.00;;;;;;5007589;28;20228;-77
2022/01/02 02:36:48;;;;;;;14.60;7.83;;;7.70;1.00;;;;;;5005118;28;20188;-77
2022/01/02 02:39:13;;;;;;;25.90;8.20;;;7.70;1.00;;;;;;5006966;28;20173;-77
2022/01/02 02:41:42;;;;;;;34.00;8.13;;;8.80;1.00;;;;;;5013508;28;20231;-80
2022/01/02 02:44:22;;;;;;;36.87;8.50;;;9.30;1.00;;;;;;4996669;28;20605;-80
2022/01/02 02:49:31;;;;;;;41.53;8.40;;;6.60;1.00;;;;;;5014489;28;20419;-80
2022/01/02 02:52:04;;;;;;;20.27;8.90;;;6.70;1.00;;;;;;5011709;28;20424;-80
2022/01/02 02:54:31;;;;;;;16.23;7.50;;;6.70;1.00;;;;;;5013094;28;20169;-80
2022/01/02 02:56:59;;;;;;;18.63;8.47;;;6.80;1.00;;;;;;5011785;28;20420;-78
2022/01/02 02:59:28;;;;;;;29.40;8.77;;;6.80;1.00;;;;;;5009848;28;20499;-77
2022/01/02 03:01:54;;;;;;;23.80;8.43;;;7.10;1.00;;;;;;4992818;28;20433;-77
2022/01/02 03:04:21;;;;;;;34.00;8.60;;;7.00;1.00;;;;;;5010441;28;20463;-77
2022/01/02 03:06:47;;;;;;;29.23;10.10;;;9.50;1.00;;;;;;5004425;28;20427;-77
2022/01/02 03:09:13;;;;;;;35.93;9.60;;;7.00;1.00;;;;;;5009446;28;20503;-77
2022/01/02 03:11:41;;;;;;;27.03;10.70;;;7.10;1.00;;;;;;5003640;28;20231;-80
2022/01/02 03:14:09;;;;;;;30.00;9.93;;;7.20;1.00;;;;;;5008770;28;20447;-80
2022/01/02 03:16:34;;;;;;;16.23;9.20;;;9.20;1.00;;;;;;5004139;28;20428;-80
2022/01/02 03:19:00;;;;;;;21.37;10.00;;;7.20;1.00;;;;;;4985463;28;20420;-80
2022/01/02 03:21:26;;;;;;;18.60;9.83;;;9.20;1.00;;;;;;5013766;28;20197;-80
2022/01/02 03:23:52;;;;;;;20.13;9.60;;;7.40;1.00;;;;;;4993916;28;20207;-80
2022/01/02 03:26:18;;;;;;;20.80;9.40;;;7.40;1.00;;;;;;5004886;28;20638;-77
2022/01/02 03:28:44;;;;;;;28.83;9.80;;;7.50;1.00;;;;;;5011159;28;20455;-77
2022/01/02 03:31:10;;;;;;;19.07;9.17;;;7.70;1.00;;;;;;5012030;28;20424;-77
2022/01/02 03:33:36;;;;;;;20.83;9.70;;;7.60;1.00;;;;;;5000929;28;20439;-77
2022/01/02 03:36:06;;;;;;;19.60;9.87;;;7.60;1.00;;;;;;5013582;28;20173;-77
2022/01/02 03:38:32;;;;;;;17.93;8.90;;;7.60;1.00;;;;;;5001219;28;20185;-77
2022/01/02 03:40:59;;;;;;;19.37;9.50;;;7.80;1.00;;;;;;5003971;28;20431;-77
2022/01/02 03:43:25;;;;;;;15.73;8.73;;;7.60;1.00;;;;;;5009932;28;20434;-80
2022/01/02 03:45:51;;;;;;;18.03;8.20;;;7.60;1.00;;;;;;5011110;28;20424;-80
2022/01/02 03:48:17;;;;;;;18.67;9.17;;;7.60;1.00;;;;;;5010072;28;20698;-80
2022/01/02 03:50:43;;;;;;;18.73;9.60;;;7.70;1.00;;;;;;5011420;28;20428;-80
2022/01/02 03:53:09;;;;;;;15.17;9.43;;;7.70;1.00;;;;;;5009910;28;20180;-80
2022/01/02 03:55:35;;;;;;;21.03;10.23;;;7.70;1.00;;;;;;5012916;28;20525;-80
2022/01/02 03:58:01;;;;;;;25.13;11.30;;;7.60;1.00;;;;;;4991895;28;20458;-80
2022/01/02 04:00:27;;;;;;;22.77;9.93;;;7.70;1.00;;;;;;5002717;28;22194;-80
2022/01/02 04:02:52;;;;;;;19.73;9.70;;;7.70;1.00;;;;;;5009325;28;20489;-80
2022/01/02 04:05:18;;;;;;;19.00;9.97;;;7.90;1.00;;;;;;5004497;28;20232;-80
2022/01/02 04:07:44;;;;;;;15.33;9.20;;;8.20;1.00;;;;;;5007060;28;20173;-80
2022/01/02 04:10:12;;;;;;;17.33;10.03;;;10.30;1.00;;;;;;4998074;28;20207;-80
2022/01/02 04:12:38;;;;;;;19.57;9.97;;;7.60;1.00;;;;;;5005162;28;20929;-77
2022/01/02 04:15:06;;;;;;;15.00;9.20;;;8.60;1.00;;;;;;5007149;28;20425;-77
2022/01/02 04:17:36;;;;;;;23.37;11.43;;;7.60;1.00;;;;;;5011586;28;20180;-77
2022/01/02 04:20:05;;;;;;;16.57;9.57;;;7.60;1.00;;;;;;5007361;28;20479;-77
2022/01/02 04:22:31;;;;;;;18.80;11.00;;;7.60;1.00;;;;;;5009498;28;20452;-77
2022/01/02 04:24:57;;;;;;;21.77;10.27;;;7.60;1.00;;;;;;5008164;28;20472;-77
2022/01/02 04:27:23;;;;;;;24.77;10.70;;;7.60;1.00;;;;;;5012296;28;20491;-80
2022/01/02 04:29:49;;;;;;;22.43;10.53;;;9.80;1.00;;;;;;5012105;28;20427;-80
2022/01/02 04:32:15;;;;;;;22.37;10.37;;;8.40;1.00;;;;;;5010788;28;20440;-80
2022/01/02 04:34:41;;;;;;;20.90;9.37;;;;;;;;;;4984700;28;20491;-80
2022/01/02 04:37:07;;;;;;;18.17;9.47;;;7.60;1.00;;;;;;5012330;28;20185;-80
2022/01/02 04:39:34;;;;;;;17.33;10.50;;;8.10;1.00;;;;;;5008539;28;20930;-80
2022/01/02 04:42:00;;;;;;;18.63;10.23;;;7.70;1.00;;;;;;4994733;28;20184;-80
2022/01/02 04:44:26;;;;;;;22.40;11.00;;;7.70;1.00;;;;;;5012944;28;20828;-80
2022/01/02 04:46:52;;;;;;;18.77;9.97;;;7.80;1.00;;;;;;5016471;28;20412;-81
2022/01/02 04:49:18;;;;;;;18.37;10.23;;;7.70;1.00;;;;;;5015992;28;20427;-80
2022/01/02 04:51:44;;;;;;;19.10;10.37;;;7.70;1.00;;;;;;5015851;28;20442;-80
2022/01/02 04:54:10;;;;;;;15.70;10.00;;;9.60;1.00;;;;;;5007203;28;20193;-80
2022/01/02 04:56:41;;;;;;;20.67;9.87;;;8.70;1.00;;;;;;4993443;28;20185;-80
2022/01/02 04:59:07;;;;;;;24.60;11.57;;;7.70;1.00;;;;;;5016418;28;20831;-80
2022/01/02 05:01:32;;;;;;;21.13;10.53;;;7.70;1.00;;;;;;5014164;28;20470;-80
2022/01/02 05:03:58;;;;;;;21.10;10.50;;;7.80;1.00;;;;;;5013794;28;20556;-80
2022/01/02 05:06:24;;;;;;;24.40;10.80;;;7.70;1.00;;;;;;5015675;28;20223;-80
2022/01/02 05:08:49;;;;;;;21.40;9.60;;;7.70;1.00;;;;;;5016245;28;20169;-80
2022/01/02 05:11:15;;;;;;;19.00;9.30;;;7.80;1.00;;;;;;5014051;28;20177;-80
2022/01/02 05:13:41;;;;;;;19.50;10.20;;;8.00;1.00;;;;;;5016254;28;20275;-80
2022/01/02 05:16:07;;;;;;;21.33;10.10;;;8.00;1.00;;;;;;5003131;28;20339;-80
2022/01/02 05:18:33;;;;;;;21.33;10.60;;;7.80;1.00;;;;;;5011191;28;20523;-80
2022/01/02 05:20:59;;;;;;;22.43;9.40;;;7.80;1.00;;;;;;5014896;28;20286;-80
2022/01/02 05:23:24;;;;;;;21.10;9.87;;;7.80;1.00;;;;;;5015819;28;20480;-80
2022/01/02 05:25:50;;;;;;;26.93;9.67;;;7.80;1.00;;;;;;5015363;28;20675;-81
2022/01/02 05:28:16;;;;;;;23.50;10.40;;;;;;;;;;5015609;28;20415;-77
2022/01/02 05:30:42;;;;;;;17.93;8.50;;;7.80;1.00;;;;;;5001855;28;20176;-77
2022/01/02 05:33:08;;;;;;;20.20;10.30;;;7.80;1.00;;;;;;5014831;28;20910;-77
2022/01/02 05:35:34;;;;;;;24.53;10.03;;;7.90;1.00;;;;;;5014495;28;20187;-77
2022/01/02 05:38:01;;;;;;;16.43;9.60;;;7.90;1.00;;;;;;5015903;28;20431;-77
2022/01/02 05:40:32;;;;;;;17.07;9.63;;;7.90;1.00;;;;;;5015324;28;20757;-77
2022/01/02 05:43:05;;;;;;;15.90;8.63;;;7.90;1.00;;;;;;4991921;28;20435;-80
2022/01/02 05:45:31;;;;;;;17.57;9.53;;;7.90;1.00;;;;;;5012674;28;20509;-80
2022/01/02 05:47:57;;;;;;;17.40;9.37;;;7.90;1.00;;;;;;5015267;28;20412;-80
2022/01/02 05:50:23;;;;;;;16.30;9.70;;;7.90;1.00;;;;;;5015270;28;20466;-80
2022/01/02 05:52:49;;;;;;;17.53;9.77;;;8.00;1.00;;;;;;5014463;28;20358;-80
2022/01/02 05:55:15;;;;;;;20.03;9.60;;;8.00;1.00;;;;;;5011812;28;20510;-80
2022/01/02 05:57:41;;;;;;;18.43;9.43;;;8.00;1.00;;;;;;5010490;28;20181;-80
2022/01/02 06:00:08;;;;;;;17.50;9.63;;;8.00;1.00;;;;;;5004768;28;20434;-80
2022/01/02 06:02:34;;;;;;;16.67;9.13;;;8.00;1.00;;;;;;4994988;28;20186;-80
2022/01/02 06:05:02;;;;;;;17.27;8.60;;;8.00;1.00;;;;;;4997356;28;20456;-80
2022/01/02 06:07:28;;;;;;;17.97;9.20;;;8.00;1.00;;;;;;5014046;28;20177;-80
2022/01/02 06:09:53;;;;;;;14.93;9.00;;;8.00;1.00;;;;;;5015020;28;20768;-81
2022/01/02 06:12:19;;;;;;;16.50;8.43;;;8.00;1.00;;;;;;4995458;28;20189;-80
2022/01/02 06:14:44;;;;;;;17.93;9.13;;;8.00;1.00;;;;;;5015478;28;20196;-80
2022/01/02 06:17:10;;;;;;;19.60;8.07;;;8.00;1.00;;;;;;5014392;28;20193;-80
2022/01/02 06:19:36;;;;;;;12.57;8.70;;;9.50;1.00;;;;;;5014937;28;20181;-80
2022/01/02 06:22:02;;;;;;;15.53;8.90;;;;;;;;;;5012338;28;20561;-80
2022/01/02 06:24:27;;;;;;;14.00;8.80;;;8.00;1.00;;;;;;5014028;28;20205;-80
2022/01/02 06:26:53;;;;;;;18.87;9.33;;;7.90;1.00;;;;;;5007236;28;20429;-80
2022/01/02 06:29:23;;;;;;;14.77;8.83;;;7.90;1.00;;;;;;4997433;28;20601;-80
2022/01/02 06:31:49;;;;;;;14.03;7.63;;;7.90;1.00;;;;;;5010833;28;20185;-80
2022/01/02 06:34:14;;;;;;;16.60;8.47;;;8.00;1.00;;;;;;5014607;28;20416;-80
2022/01/02 06:36:40;;;;;;;22.27;9.90;;;9.20;1.00;;;;;;5007454;28;20216;-80
2022/01/02 06:39:06;;;;;;;18.70;9.20;;;7.80;1.00;;;;;;5011879;28;20548;-80
2022/01/02 06:41:31;;;;;;;16.07;8.47;;;9.70;1.00;;;;;;5011741;28;20182;-80
2022/01/02 06:43:57;;;;;;;15.87;9.10;;;7.70;1.00;;;;;;5014595;28;20205;-80
2022/01/02 06:46:23;;;;;;;17.97;8.80;;;9.50;1.00;;;;;;5009643;28;20178;-80
2022/01/02 06:48:48;;;;;;;14.83;8.90;;;8.50;1.00;;;;;;5014497;28;20628;-80
2022/01/02 06:51:14;;;;;;;16.00;9.03;;;7.70;1.00;;;;;;5013193;28;20176;-80
2022/01/02 06:53:39;;;;;;;15.27;8.67;;;9.90;1.00;;;;;;4985489;28;20177;-80
2022/01/02 06:56:05;;;;;;;15.73;8.63;;;9.90;1.00;;;;;;5012161;28;20193;-80
2022/01/02 06:58:31;;;;;;;18.13;9.30;;;7.60;1.00;;;;;;4983145;28;20712;-78
2022/01/02 07:00:57;;;;;;;17.77;8.50;;;7.60;1.00;;;;;;5008693;28;20535;-78
2022/01/02 07:03:24;;;;;;;19.00;9.10;;;7.60;1.00;;;;;;5008934;28;20428;-77
2022/01/02 07:05:50;;;;;;;16.80;9.33;;;7.60;1.00;;;;;;5014093;28;20668;-77
2022/01/02 07:08:16;;;;;;;18.30;8.40;;;7.60;1.00;;;;;;5011146;28;20945;-80
2022/01/02 07:10:42;;;;;;;14.70;8.30;;;9.40;1.00;;;;;;5005303;28;20424;-80
2022/01/02 07:13:07;;;;;;;15.10;7.57;;;9.50;1.00;;;;;;5010961;28;20315;-80
2022/01/02 07:15:33;;;;;;;15.00;7.60;;;8.50;1.00;;;;;;5006774;28;20198;-80
2022/01/02 07:17:59;;;;;;;16.83;8.23;;;9.30;1.00;;;;;;5012436;28;20180;-80
2022/01/02 07:20:25;;;;;;;19.67;8.30;;;7.50;1.00;;;;;;5013709;28;20259;-80
2022/01/02 07:22:51;;;;;;;14.60;8.67;;;9.30;1.00;;;;;;5008557;28;20524;-81
2022/01/02 07:25:16;;;;;;;16.70;8.37;;;8.80;1.00;;;;;;5013453;28;20196;-80
2022/01/02 07:27:42;;;;;;;15.73;8.17;;;9.00;1.00;;;;;;5008076;28;20181;-80
2022/01/02 07:30:08;;;;;;;15.60;8.67;;;7.60;1.00;;;;;;5008698;28;20263;-77
2022/01/02 07:32:35;;;;;;;11.70;7.67;;;7.60;1.00;;;;;;5005553;28;20643;-77
2022/01/02 07:35:03;;;;;;;15.50;9.57;;;7.70;1.00;;;;;;5001452;28;20421;-78
2022/01/02 07:37:29;;;;;;;13.17;7.77;;;7.70;1.00;;;;;;5011345;28;20412;-77
2022/01/02 07:39:55;;;;;;;16.20;7.83;;;7.70;1.00;;;;;;5012469;28;21072;-77
2022/01/02 07:42:20;;;;;;;17.40;7.17;;;9.10;1.00;;;;;;5012007;28;20662;-77
2022/01/02 07:44:46;;;;;;;17.63;8.50;;;8.60;1.00;;;;;;5012306;28;20276;-80
2022/01/02 07:47:11;;;;;;;16.60;9.20;;;8.10;1.00;;;;;;5013402;28;20660;-82
2022/01/02 07:49:37;;;;;;;17.37;9.30;;;9.00;1.00;;;;;;5012371;28;20208;-80
2022/01/02 07:52:03;;;;;;;12.27;6.90;;;9.70;1.00;;;;;;5002352;28;20169;-80
2022/01/02 07:54:29;;;;;;;13.60;8.00;;;7.90;1.00;;;;;;5012257;28;20192;-81
2022/01/02 07:56:54;;;;;;;16.17;8.47;;;7.90;1.00;;;;;;5009365;28;20177;-80
2022/01/02 07:59:20;;;;;;;13.20;7.70;;;9.50;1.00;;;;;;5000485;28;20169;-77
2022/01/02 08:01:46;;;;;;;19.20;8.30;;;9.30;1.00;;;;;;5010351;28;20271;-77
2022/01/02 08:04:24;;;;;;;14.40;7.90;;;10.30;1.00;;;;;;5009862;28;20711;-76
2022/01/02 08:06:53;;;;;;;13.60;8.33;;;8.00;1.00;;;;;;5004839;28;20407;-77
2022/01/02 08:09:35;;;;;;;13.07;7.97;;;8.00;1.00;;;;;;5014263;28;20443;-77
2022/01/02 08:12:17;;;;;;;19.80;8.60;;;8.00;1.00;;;;;;4996561;28;20423;-76
2022/01/02 08:14:43;;;;;;;17.23;8.40;;;8.10;1.00;;;;;;4985851;28;20478;-77
2022/01/02 08:17:11;;;;;;;19.27;8.70;;;8.10;1.00;;;;;;5014037;28;20914;-76
2022/01/02 08:19:41;;;;;;;18.13;9.10;;;8.10;1.00;;;;;;5016500;28;20645;-77
2022/01/02 08:22:23;;;;;;;14.07;8.50;;;8.10;1.00;;;;;;5014110;28;20472;-76
2022/01/02 08:24:49;;;;;;;15.97;8.53;;;8.10;1.00;;;;;;4998384;28;21017;-76
2022/01/02 08:27:18;;;;;;;17.40;8.20;;;8.30;1.00;;;;;;5015353;28;20401;-76
2022/01/02 08:29:43;;;;;;;14.83;8.00;;;8.20;1.00;;;;;;5007929;28;20265;-80
2022/01/02 08:32:09;;;;;;;13.43;8.00;;;8.20;1.00;;;;;;5009856;28;20444;-80
2022/01/02 08:34:35;;;;;;;19.53;9.37;;;8.30;1.00;;;;;;5017391;28;20165;-79
2022/01/02 08:37:05;;;;;;;13.80;8.50;;;8.30;1.00;;;;;;5009667;28;20462;-80
2022/01/02 08:39:35;;;;;;;15.50;8.90;;;8.30;1.00;;;;;;4998008;28;20617;-79
2022/01/02 08:42:06;;;;;;;13.40;7.70;;;8.40;1.00;;;;;;4997883;28;20491;-80
2022/01/02 08:44:38;;;;;;;16.00;8.30;;;8.40;1.00;;;;;;5012887;28;20949;-80
2022/01/02 08:47:04;;;;;;;15.77;9.07;;;8.50;1.00;;;;;;5001791;28;20416;-80
2022/01/02 08:49:48;;;;;;;13.07;8.60;;;8.50;1.00;;;;;;4997247;28;20860;-80
2022/01/02 08:52:29;;;;;;;13.27;7.10;;;8.60;1.00;;;;;;5001150;28;20439;-79
2022/01/02 08:55:06;;;;;;;15.93;8.23;;;8.60;1.00;;;;;;5016787;28;20478;-79
2022/01/02 08:57:42;;;;;;;16.90;8.87;;;8.60;1.00;;;;;;5017123;28;20392;-79
2022/01/02 09:00:12;;;;;;;14.37;8.63;;;8.70;1.00;;;;;;4999810;28;20408;-79
2022/01/02 09:03:06;;;;;;;13.50;7.57;;;8.70;1.00;;;;;;5017088;28;20373;-79
2022/01/02 09:05:35;;;;;;;13.40;9.00;;;8.70;1.00;;;;;;5000357;28;20522;-79
2022/01/02 09:08:05;;;;;;;16.70;9.07;;;8.80;1.00;;;;;;4997290;28;20880;-79
2022/01/02 09:10:35;;;;;;;12.20;7.60;;;8.80;1.00;;;;;;4997355;28;20870;-79
2022/01/02 09:13:12;;;;;;;14.07;7.93;;;8.80;1.00;;;;;;5010375;28;20436;-79
2022/01/02 09:15:41;;;;;;;13.17;8.13;;;8.90;1.00;;;;;;5017231;28;20466;-77
2022/01/02 09:18:07;;;;;;;14.10;7.83;;;8.90;1.00;;;;;;5016645;28;20826;-76
2022/01/02 09:20:35;;;;;;;14.33;8.17;;;9.00;1.00;;;;;;5017456;28;20424;-76
2022/01/02 09:23:01;;;;;;;16.07;8.53;;;9.00;1.00;;;;;;5016824;28;20161;-76
2022/01/02 09:25:27;;;;;;;15.23;8.30;;;9.50;1.00;;;;;;5002568;28;20764;-76
2022/01/02 09:27:53;;;;;;;13.97;8.30;;;9.20;1.00;;;;;;4998569;28;20212;-76
2022/01/02 09:30:19;;;;;;;14.60;8.73;;;9.20;1.00;;;;;;4997688;28;20409;-77
2022/01/02 09:32:45;;;;;;;23.93;9.13;;;9.20;1.00;;;;;;5011698;28;20407;-76
2022/01/02 09:35:11;;;;;;;17.53;9.37;;;9.20;1.00;;;;;;5016511;28;20200;-77
2022/01/02 09:37:47;;;;;;;15.50;9.40;;;9.20;1.00;;;;;;5016666;28;20259;-76
2022/01/02 09:40:31;;;;;;;18.33;8.70;;;9.30;1.00;;;;;;5016576;28;20435;-77
2022/01/02 09:43:06;;;;;;;12.20;8.13;;;9.40;1.00;;;;;;4998943;28;20423;-76
2022/01/02 09:45:38;;;;;;;15.00;8.77;;;9.30;1.00;;;;;;5005088;28;20435;-80
2022/01/02 09:48:08;;;;;;;12.80;8.77;;;9.30;1.00;;;;;;4996588;28;20488;-80
2022/01/02 09:50:37;;;;;;;17.40;8.70;;;9.70;1.00;;;;;;4997490;28;20379;-80
2022/01/02 09:53:07;;;;;;;16.10;8.33;;;9.40;1.00;;;;;;5016147;28;20438;-80
2022/01/02 09:55:36;;;;;;;16.30;8.80;;;9.50;1.00;;;;;;5015808;28;20485;-80
2022/01/02 09:58:12;;;;;;;14.80;8.00;;;9.60;1.00;;;;;;5016036;28;20408;-79
2022/01/02 10:01:14;;;;;;;14.17;8.10;;;9.60;1.00;;;;;;4994237;28;20431;-79
2022/01/02 10:03:51;;;;;;;15.13;8.30;;;9.70;1.00;;;;;;4996245;28;20415;-80
2022/01/02 10:06:18;;;;;;;13.70;7.80;;;9.80;1.00;;;;;;4996217;28;20396;-80
2022/01/02 10:08:53;;;;;;;13.93;6.50;;;9.80;1.00;;;;;;5013394;28;20443;-80
2022/01/02 10:11:25;;;;;;;12.30;7.50;;;9.80;1.00;;;;;;5003692;28;20951;-80
2022/01/02 10:13:56;;;;;;;12.57;7.60;;;9.80;1.00;;;;;;4994771;28;20422;-80
2022/01/02 10:16:38;;;;;;;21.27;7.00;;;9.60;1.00;;;;;;4997219;28;20415;-79
2022/01/02 10:19:29;;;;;;;13.90;7.60;;;9.60;1.00;;;;;;5000483;28;20482;-82
2022/01/02 10:22:01;;;;;;;10.40;6.67;;;9.40;1.00;;;;;;4996865;28;20796;-79
2022/01/02 10:24:30;;;;;;;12.20;7.90;;;9.40;1.00;;;;;;5011752;28;20437;-78
2022/01/02 10:27:08;;;;;;;15.27;7.97;;;9.40;1.00;;;;;;4984791;28;20511;-79
2022/01/02 10:29:42;;;;;;;11.27;6.77;;;9.40;1.00;;;;;;5014329;28;20407;-79
2022/01/02 10:32:39;;;;;;;11.43;7.33;;;9.40;1.00;;;;;;5014582;28;20407;-79
2022/01/02 10:35:18;;;;;;;17.30;6.97;;;9.40;1.00;;;;;;5014004;28;20456;-80
2022/01/02 10:37:55;;;;;;;16.10;7.30;;;9.50;1.00;;;;;;5014414;28;20573;-80
2022/01/02 10:40:32;;;;;;;14.17;7.30;;;9.40;1.00;;;;;;5014434;28;20410;-79
2022/01/02 10:43:00;;;;;;;10.07;6.83;;;9.40;1.00;;;;;;5009256;28;20468;-80
2022/01/02 10:45:41;;;;;;;12.17;7.20;;;9.40;1.00;;;;;;4997972;28;20484;-79
2022/01/02 10:48:13;;;;;;;10.63;6.83;;;9.40;1.00;;;;;;5013096;28;20442;-79
2022/01/02 10:51:16;;;;;;;10.43;6.50;;;9.40;1.00;;;;;;5008534;28;20499;-78
2022/01/02 10:54:11;;;;;;;16.70;7.47;;;9.60;1.00;;;;;;4973653;28;20937;-79
2022/01/02 10:56:42;;;;;;;8.33;6.70;;;9.50;1.00;;;;;;4973569;28;20429;-80
2022/01/02 10:59:07;;;;;;;11.70;7.20;;;9.70;1.00;;;;;;4973520;28;20422;-80
2022/01/02 11:01:35;;;;;;;11.33;7.13;;;9.70;1.00;;;;;;4973897;28;20397;-78
2022/01/02 11:04:12;;;;;;;14.43;8.23;;;9.70;1.00;;;;;;4973479;28;20215;-79
2022/01/02 11:06:54;;;;;;;13.77;6.77;;;9.70;1.00;;;;;;4973367;28;20461;-79
2022/01/02 11:09:24;;;;;;;11.17;7.07;;;9.70;1.00;;;;;;4956656;28;21092;-79
2022/01/02 11:11:50;;;;;;;14.90;6.90;;;9.80;1.00;;;;;;4967939;28;20423;-79
2022/01/02 11:14:23;;;;;;;9.67;6.03;;;9.80;1.00;;;;;;4973482;28;20905;-79
2022/01/02 11:16:54;;;;;;;13.17;7.03;;;9.70;1.00;;;;;;4972995;28;20433;-79
2022/01/02 11:19:20;;;;;;;12.87;7.20;;;9.90;1.00;;;;;;4969981;28;20431;-79
2022/01/02 11:21:48;;;;;;;12.87;7.80;;;9.90;1.00;;;;;;4973190;28;20448;-79
2022/01/02 11:24:27;;;;;;;12.23;7.27;;;10.00;1.00;;;;;;4973399;28;20952;-79
2022/01/02 11:27:05;;;;;;;11.30;6.80;;;10.00;1.00;;;;;;4972420;28;20452;-79
2022/01/02 11:29:36;;;;;;;10.80;7.10;;;10.00;1.00;;;;;;4988962;28;20431;-79
2022/01/02 11:32:26;;;;;;;9.23;6.20;;;9.90;1.00;;;;;;4996295;28;20426;-79
2022/01/02 11:34:53;;;;;;;10.80;6.30;;;9.90;1.00;;;;;;5013541;28;20423;-79
2022/01/02 11:37:26;;;;;;;10.83;6.80;;;9.90;1.00;;;;;;5013763;28;20432;-79
2022/01/02 11:39:59;;;;;;;10.03;6.60;;;9.90;1.00;;;;;;5012934;28;20416;-79
2022/01/02 11:42:56;;;;;;;10.33;5.80;;;10.00;1.00;;;;;;5006985;28;20448;-79
2022/01/02 11:45:31;;;;;;;11.70;6.50;;;10.10;1.00;;;;;;4915052;29;20465;-79
2022/01/02 11:48:27;;;;;;;10.77;6.10;;;10.20;1.00;;;;;;4915583;29;20420;-79
2022/01/02 11:51:00;;;;;;;12.57;5.70;;;10.20;1.00;;;;;;4846693;29;20939;-78
2022/01/02 11:53:27;;;;;;;10.97;6.67;;;10.20;1.00;;;;;;4840233;29;20446;-78
2022/01/02 11:56:00;;;;;;;10.10;5.77;;;10.30;1.00;;;;;;4851058;29;20555;-78
2022/01/02 11:58:50;;;;;;;9.17;5.70;;;10.20;1.00;;;;;;4841005;29;20412;-78
2022/01/02 12:01:45;;;;;;;12.73;6.40;;;10.20;1.00;;;;;;4839193;29;20424;-78
2022/01/02 12:04:18;;;;;;;6.67;5.47;;;10.30;1.00;;;;;;4831416;29;20443;-78
2022/01/02 12:06:52;;;;;;;15.43;5.23;;;10.20;1.00;;;;;;4858787;29;20389;-79
2022/01/02 12:09:37;;;;;;;10.70;6.60;;;10.30;1.00;;;;;;4841063;29;20403;-79
2022/01/02 12:12:06;;;;;;;9.90;6.03;;;10.10;1.00;;;;;;4856087;29;20442;-78
2022/01/02 12:14:52;;;;;;;9.87;5.60;;;10.00;1.00;;;;;;4848549;29;20508;-79
2022/01/02 12:17:25;;;;;;;10.97;5.97;;;9.90;1.00;;;;;;4825451;29;20483;-78
2022/01/02 12:20:05;;;;;;;10.43;5.63;;;10.00;1.00;;;;;;4840952;29;20432;-79
2022/01/02 12:22:42;;;;;;;8.53;5.50;;;9.80;1.00;;;;;;4901189;29;20451;-79
2022/01/02 12:25:21;;;;;;;8.63;4.80;;;9.90;1.00;;;;;;4914831;29;20431;-79
2022/01/02 12:27:49;;;;;;;6.33;4.60;;;9.90;1.00;;;;;;4984655;28;21004;-78
2022/01/02 12:30:19;;;;;;;7.30;5.00;;;9.90;1.00;;;;;;5013825;28;20423;-78
2022/01/02 12:32:54;;;;;;;11.30;4.20;;;10.00;1.00;;;;;;4998558;28;20776;-77
2022/01/02 12:35:20;;;;;;;8.37;4.87;;;10.10;1.00;;;;;;5013559;28;20531;-78
2022/01/02 12:37:46;;;;;;;6.43;4.10;;;10.10;1.00;;;;;;4982985;28;20977;-77
2022/01/02 12:40:14;;;;;;;8.37;4.10;;;10.30;1.00;;;;;;5012116;28;20471;-78
2022/01/02 12:42:40;;;;;;;12.60;5.50;;;10.40;1.00;;;;;;5013744;28;20804;-77
2022/01/02 12:45:15;;;;;;;6.43;3.90;;;10.40;1.00;;;;;;5013474;28;20388;-78
2022/01/02 12:47:55;;;;;;;5.53;3.77;;;10.50;1.00;;;;;;5013365;28;20267;-79
2022/01/02 12:50:26;;;;;;;10.87;4.07;;;10.50;1.00;;;;;;5013081;28;20820;-79
2022/01/02 12:52:55;;;;;;;5.80;4.27;;;10.60;1.00;;;;;;5007658;28;20394;-77
2022/01/02 12:55:25;;;;;;;5.70;4.23;;;10.60;1.00;;;;;;5004966;28;20491;-78
2022/01/02 12:58:00;;;;;;;6.53;3.93;;;10.70;1.00;;;;;;5003970;28;20435;-78
2022/01/02 13:00:36;;;;;;;5.20;3.97;;;10.80;1.00;;;;;;5011341;28;20455;-78
2022/01/02 13:03:01;;;;;;;5.40;3.87;;;10.80;1.00;;;;;;4993585;28;20407;-75
2022/01/02 13:05:28;;;;;;;6.33;4.20;;;10.90;1.00;;;;;;5011638;28;20431;-77
2022/01/02 13:07:59;;;;;;;4.80;3.80;;;10.90;1.00;;;;;;5017354;28;20181;-78
2022/01/02 13:10:30;;;;;;;5.20;3.97;;;10.90;1.00;;;;;;5010935;28;20437;-78
2022/01/02 13:12:55;;;;;;;4.27;3.17;;;11.10;1.00;;;;;;5003882;28;20421;-77
2022/01/02 13:15:23;;;;;;;5.33;3.73;;;11.10;1.00;;;;;;5001225;28;20768;-77